sensor_id;sensor_type;location;lat;lon;timestamp;temperature;humidity
44509;DHT22;30214;52.246;14.408;2023-04-30T00:02:13;7.80;99.90
44509;DHT22;30214;52.246;14.408;2023-04-30T00:04:41;7.80;99.90
44509;DHT22;30214;52.246;14.408;2023-04-30T00:07:08;7.70;99.90
44509;DHT22;30214;52.246;14.408;2023-04-30T00:09:35;7.70;99.90
44509;DHT22;30214;52.246;14.408;2023-04-30T00:12:02;7.70;99.90
44509;DHT22;30214;52.246;14.408;2023-04-30T00:14:29;7.70;99.90
44509;DHT22;30214;52.246;14.408;2023-04-30T00:16:58;7.60;99.90
44509;DHT22;30214;52.246;14.408;2023-04-30T00:19:25;7.60;99.90
44509;DHT22;30214;52.246;14.408;2023-04-30T00:21:52;7.50;99.90
44509;DHT22;30214;52.246;14.408;2023-04-30T00:24:19;7.50;99.90
44509;DHT22;30214;52.246;14.408;2023-04-30T00:26:46;7.40;99.90
44509;DHT22;30214;52.246;14.408;2023-04-30T00:29:13;7.40;99.90
44509;DHT22;30214;52.246;14.408;2023-04-30T00:31:40;7.40;99.90
44509;DHT22;30214;52.246;14.408;2023-04-30T00:34:09;7.40;99.90
44509;DHT22;30214;52.246;14.408;2023-04-30T00:36:36;7.40;99.90
44509;DHT22;30214;52.246;14.408;2023-04-30T00:39:04;7.30;99.90
44509;DHT22;30214;52.246;14.408;2023-04-30T00:41:31;7.30;99.90
44509;DHT22;30214;52.246;14.408;2023-04-30T00:43:58;7.30;99.90
44509;DHT22;30214;52.246;14.408;2023-04-30T00:46:26;7.20;99.90
44509;DHT22;30214;52.246;14.408;2023-04-30T00:48:54;7.20;99.90
44509;DHT22;30214;52.246;14.408;2023-04-30T00:51:22;7.20;99.90
44509;DHT22;30214;52.246;14.408;2023-04-30T00:53:50;7.20;99.90
44509;DHT22;30214;52.246;14.408;2023-04-30T00:56:17;7.10;99.90
44509;DHT22;30214;52.246;14.408;2023-04-30T00:58:44;6.90;99.90
44509;DHT22;30214;52.246;14.408;2023-04-30T01:01:11;6.70;99.90
44509;DHT22;30214;52.246;14.408;2023-04-30T01:03:39;6.50;99.90
44509;DHT22;30214;52.246;14.408;2023-04-30T01:06:07;6.40;99.90
44509;DHT22;30214;52.246;14.408;2023-04-30T01:08:35;6.20;99.90
44509;DHT22;30214;52.246;14.408;2023-04-30T01:11:10;6.20;99.90
44509;DHT22;30214;52.246;14.408;2023-04-30T01:13:51;6.20;99.90
44509;DHT22;30214;52.246;14.408;2023-04-30T01:16:25;6.10;99.90
44509;DHT22;30214;52.246;14.408;2023-04-30T01:19:01;6.10;99.90
44509;DHT22;30214;52.246;14.408;2023-04-30T01:21:31;6.20;99.90
44509;DHT22;30214;52.246;14.408;2023-04-30T01:24:17;6.20;99.90
44509;DHT22;30214;52.246;14.408;2023-04-30T01:27:06;6.20;99.90
44509;DHT22;30214;52.246;14.408;2023-04-30T01:29:41;6.20;99.90
44509;DHT22;30214;52.246;14.408;2023-04-30T01:32:09;6.10;99.90
44509;DHT22;30214;52.246;14.408;2023-04-30T01:34:36;6.10;99.90
44509;DHT22;30214;52.246;14.408;2023-04-30T01:37:13;6.00;99.90
44509;DHT22;30214;52.246;14.408;2023-04-30T01:39:55;5.80;99.90
44509;DHT22;30214;52.246;14.408;2023-04-30T01:42:31;5.70;99.90
44509;DHT22;30214;52.246;14.408;2023-04-30T01:45:15;5.50;99.90
44509;DHT22;30214;52.246;14.408;2023-04-30T01:47:53;5.50;99.90
44509;DHT22;30214;52.246;14.408;2023-04-30T01:50:24;5.50;99.90
44509;DHT22;30214;52.246;14.408;2023-04-30T01:52:55;5.60;99.90
44509;DHT22;30214;52.246;14.408;2023-04-30T01:55:29;5.60;99.90
44509;DHT22;30214;52.246;14.408;2023-04-30T01:58:04;5.50;99.90
44509;DHT22;30214;52.246;14.408;2023-04-30T02:00:34;5.50;99.90
44509;DHT22;30214;52.246;14.408;2023-04-30T02:03:01;5.40;99.90
44509;DHT22;30214;52.246;14.408;2023-04-30T02:05:29;5.40;99.90
44509;DHT22;30214;52.246;14.408;2023-04-30T02:07:56;5.30;99.90
44509;DHT22;30214;52.246;14.408;2023-04-30T02:10:24;5.30;99.90
44509;DHT22;30214;52.246;14.408;2023-04-30T02:12:52;5.40;99.90
44509;DHT22;30214;52.246;14.408;2023-04-30T02:15:20;5.50;99.90
44509;DHT22;30214;52.246;14.408;2023-04-30T02:17:48;5.50;99.90
44509;DHT22;30214;52.246;14.408;2023-04-30T02:20:15;5.60;99.90
44509;DHT22;30214;52.246;14.408;2023-04-30T02:22:43;5.60;99.90
44509;DHT22;30214;52.246;14.408;2023-04-30T02:25:10;5.60;99.90
44509;DHT22;30214;52.246;14.408;2023-04-30T02:27:37;5.60;99.90
44509;DHT22;30214;52.246;14.408;2023-04-30T02:30:06;5.50;99.90
44509;DHT22;30214;52.246;14.408;2023-04-30T02:32:33;5.40;99.90
44509;DHT22;30214;52.246;14.408;2023-04-30T02:35:05;5.30;99.90
44509;DHT22;30214;52.246;14.408;2023-04-30T02:37:33;5.10;99.90
44509;DHT22;30214;52.246;14.408;2023-04-30T02:40:00;5.00;99.90
44509;DHT22;30214;52.246;14.408;2023-04-30T02:42:27;4.90;99.90
44509;DHT22;30214;52.246;14.408;2023-04-30T02:44:54;4.90;99.90
44509;DHT22;30214;52.246;14.408;2023-04-30T02:47:21;4.90;99.90
44509;DHT22;30214;52.246;14.408;2023-04-30T02:49:48;4.90;99.90
44509;DHT22;30214;52.246;14.408;2023-04-30T02:52:17;4.80;99.90
44509;DHT22;30214;52.246;14.408;2023-04-30T02:54:44;4.80;99.90
44509;DHT22;30214;52.246;14.408;2023-04-30T02:57:11;4.80;99.90
44509;DHT22;30214;52.246;14.408;2023-04-30T02:59:38;4.80;99.90
44509;DHT22;30214;52.246;14.408;2023-04-30T03:02:10;4.70;99.90
44509;DHT22;30214;52.246;14.408;2023-04-30T03:04:37;4.70;99.90
44509;DHT22;30214;52.246;14.408;2023-04-30T03:07:04;4.60;99.90
44509;DHT22;30214;52.246;14.408;2023-04-30T03:09:35;4.60;99.90
44509;DHT22;30214;52.246;14.408;2023-04-30T03:12:05;4.60;99.90
44509;DHT22;30214;52.246;14.408;2023-04-30T03:14:32;4.60;99.90
44509;DHT22;30214;52.246;14.408;2023-04-30T03:17:00;4.50;99.90
44509;DHT22;30214;52.246;14.408;2023-04-30T03:19:27;4.40;99.90
44509;DHT22;30214;52.246;14.408;2023-04-30T03:21:54;4.40;99.90
44509;DHT22;30214;52.246;14.408;2023-04-30T03:24:21;4.40;99.90
44509;DHT22;30214;52.246;14.408;2023-04-30T03:26:51;4.30;99.90
44509;DHT22;30214;52.246;14.408;2023-04-30T03:29:18;4.30;99.90
44509;DHT22;30214;52.246;14.408;2023-04-30T03:31:45;4.20;99.90
44509;DHT22;30214;52.246;14.408;2023-04-30T03:34:12;4.10;99.90
44509;DHT22;30214;52.246;14.408;2023-04-30T03:36:39;4.00;99.90
44509;DHT22;30214;52.246;14.408;2023-04-30T03:39:06;3.80;99.90
44509;DHT22;30214;52.246;14.408;2023-04-30T03:41:34;3.60;99.90
44509;DHT22;30214;52.246;14.408;2023-04-30T03:44:04;3.50;99.90
44509;DHT22;30214;52.246;14.408;2023-04-30T03:46:31;3.40;99.90
44509;DHT22;30214;52.246;14.408;2023-04-30T03:48:58;3.40;99.90
44509;DHT22;30214;52.246;14.408;2023-04-30T03:51:25;3.30;99.90
44509;DHT22;30214;52.246;14.408;2023-04-30T03:53:53;3.30;99.90
44509;DHT22;30214;52.246;14.408;2023-04-30T03:56:20;3.40;99.90
44509;DHT22;30214;52.246;14.408;2023-04-30T03:58:47;3.60;99.90
44509;DHT22;30214;52.246;14.408;2023-04-30T04:01:16;3.80;99.90
44509;DHT22;30214;52.246;14.408;2023-04-30T04:03:43;3.90;99.90
44509;DHT22;30214;52.246;14.408;2023-04-30T04:06:10;4.10;99.90
44509;DHT22;30214;52.246;14.408;2023-04-30T04:08:37;4.30;99.90
44509;DHT22;30214;52.246;14.408;2023-04-30T04:11:07;4.60;99.90
44509;DHT22;30214;52.246;14.408;2023-04-30T04:13:35;5.00;99.90
44509;DHT22;30214;52.246;14.408;2023-04-30T04:16:02;5.30;99.90
44509;DHT22;30214;52.246;14.408;2023-04-30T04:18:30;5.60;99.90
44509;DHT22;30214;52.246;14.408;2023-04-30T04:20:57;6.00;99.90
44509;DHT22;30214;52.246;14.408;2023-04-30T04:23:26;6.20;99.90
44509;DHT22;30214;52.246;14.408;2023-04-30T04:25:53;6.50;99.90
44509;DHT22;30214;52.246;14.408;2023-04-30T04:28:22;6.70;99.90
44509;DHT22;30214;52.246;14.408;2023-04-30T04:30:49;7.00;99.90
44509;DHT22;30214;52.246;14.408;2023-04-30T04:33:17;7.30;99.90
44509;DHT22;30214;52.246;14.408;2023-04-30T04:35:45;7.50;99.90
44509;DHT22;30214;52.246;14.408;2023-04-30T04:38:12;7.70;99.90
44509;DHT22;30214;52.246;14.408;2023-04-30T04:40:44;7.90;99.90
44509;DHT22;30214;52.246;14.408;2023-04-30T04:43:17;8.10;99.90
44509;DHT22;30214;52.246;14.408;2023-04-30T04:45:44;8.30;99.90
44509;DHT22;30214;52.246;14.408;2023-04-30T04:48:12;8.60;99.90
44509;DHT22;30214;52.246;14.408;2023-04-30T04:50:40;8.80;99.90
44509;DHT22;30214;52.246;14.408;2023-04-30T04:53:08;8.80;99.90
44509;DHT22;30214;52.246;14.408;2023-04-30T04:55:35;8.90;99.90
44509;DHT22;30214;52.246;14.408;2023-04-30T04:58:02;8.90;99.90
44509;DHT22;30214;52.246;14.408;2023-04-30T05:00:29;8.90;99.90
44509;DHT22;30214;52.246;14.408;2023-04-30T05:02:56;8.90;99.90
44509;DHT22;30214;52.246;14.408;2023-04-30T05:05:23;9.10;99.90
44509;DHT22;30214;52.246;14.408;2023-04-30T05:07:50;9.30;99.90
44509;DHT22;30214;52.246;14.408;2023-04-30T05:10:20;9.60;99.90
44509;DHT22;30214;52.246;14.408;2023-04-30T05:12:47;9.80;99.90
44509;DHT22;30214;52.246;14.408;2023-04-30T05:15:14;9.90;99.90
44509;DHT22;30214;52.246;14.408;2023-04-30T05:17:42;10.00;99.90
44509;DHT22;30214;52.246;14.408;2023-04-30T05:20:10;10.30;99.90
44509;DHT22;30214;52.246;14.408;2023-04-30T05:22:38;10.70;99.90
44509;DHT22;30214;52.246;14.408;2023-04-30T05:25:06;11.10;99.90
44509;DHT22;30214;52.246;14.408;2023-04-30T05:27:35;11.40;99.90
44509;DHT22;30214;52.246;14.408;2023-04-30T05:30:02;11.70;99.90
44509;DHT22;30214;52.246;14.408;2023-04-30T05:32:30;11.90;99.90
44509;DHT22;30214;52.246;14.408;2023-04-30T05:34:57;12.20;99.90
44509;DHT22;30214;52.246;14.408;2023-04-30T05:37:24;12.30;99.60
44509;DHT22;30214;52.246;14.408;2023-04-30T05:39:51;12.30;99.70
44509;DHT22;30214;52.246;14.408;2023-04-30T05:42:18;12.50;99.50
44509;DHT22;30214;52.246;14.408;2023-04-30T05:44:47;12.70;99.40
44509;DHT22;30214;52.246;14.408;2023-04-30T05:47:14;12.80;98.20
44509;DHT22;30214;52.246;14.408;2023-04-30T05:49:41;12.90;97.70
44509;DHT22;30214;52.246;14.408;2023-04-30T05:52:09;13.10;98.40
44509;DHT22;30214;52.246;14.408;2023-04-30T05:54:36;13.10;97.60
44509;DHT22;30214;52.246;14.408;2023-04-30T05:57:03;13.10;96.70
44509;DHT22;30214;52.246;14.408;2023-04-30T05:59:30;13.20;96.80
44509;DHT22;30214;52.246;14.408;2023-04-30T06:01:58;13.30;97.10
44509;DHT22;30214;52.246;14.408;2023-04-30T06:04:25;13.20;97.10
44509;DHT22;30214;52.246;14.408;2023-04-30T06:06:52;13.30;97.10
44509;DHT22;30214;52.246;14.408;2023-04-30T06:09:19;13.50;96.70
44509;DHT22;30214;52.246;14.408;2023-04-30T06:11:46;13.50;95.90
44509;DHT22;30214;52.246;14.408;2023-04-30T06:14:15;13.60;94.80
44509;DHT22;30214;52.246;14.408;2023-04-30T06:16:42;13.70;94.80
44509;DHT22;30214;52.246;14.408;2023-04-30T06:19:11;13.60;94.30
44509;DHT22;30214;52.246;14.408;2023-04-30T06:21:38;13.60;94.70
44509;DHT22;30214;52.246;14.408;2023-04-30T06:24:05;13.80;95.20
44509;DHT22;30214;52.246;14.408;2023-04-30T06:26:32;13.70;94.90
44509;DHT22;30214;52.246;14.408;2023-04-30T06:28:59;13.70;94.80
44509;DHT22;30214;52.246;14.408;2023-04-30T06:31:26;13.60;95.10
44509;DHT22;30214;52.246;14.408;2023-04-30T06:33:53;13.70;95.50
44509;DHT22;30214;52.246;14.408;2023-04-30T06:36:21;13.90;94.50
44509;DHT22;30214;52.246;14.408;2023-04-30T06:38:48;14.10;94.00
44509;DHT22;30214;52.246;14.408;2023-04-30T06:41:15;14.10;94.00
44509;DHT22;30214;52.246;14.408;2023-04-30T06:43:43;13.90;93.80
44509;DHT22;30214;52.246;14.408;2023-04-30T06:46:10;13.30;94.10
44509;DHT22;30214;52.246;14.408;2023-04-30T06:48:37;12.70;96.20
44509;DHT22;30214;52.246;14.408;2023-04-30T06:51:04;12.10;99.50
44509;DHT22;30214;52.246;14.408;2023-04-30T06:53:33;12.20;99.90
44509;DHT22;30214;52.246;14.408;2023-04-30T06:56:00;12.20;99.30
44509;DHT22;30214;52.246;14.408;2023-04-30T06:58:28;12.10;98.70
44509;DHT22;30214;52.246;14.408;2023-04-30T07:00:55;12.00;99.40
44509;DHT22;30214;52.246;14.408;2023-04-30T07:03:22;12.00;99.40
44509;DHT22;30214;52.246;14.408;2023-04-30T07:05:50;11.80;99.90
44509;DHT22;30214;52.246;14.408;2023-04-30T07:08:22;12.20;99.40
44509;DHT22;30214;52.246;14.408;2023-04-30T07:10:53;12.30;99.20
44509;DHT22;30214;52.246;14.408;2023-04-30T07:13:20;12.40;99.10
44509;DHT22;30214;52.246;14.408;2023-04-30T07:15:47;12.70;97.60
44509;DHT22;30214;52.246;14.408;2023-04-30T07:18:17;13.10;98.70
44509;DHT22;30214;52.246;14.408;2023-04-30T07:20:44;13.10;97.20
44509;DHT22;30214;52.246;14.408;2023-04-30T07:23:11;12.70;98.40
44509;DHT22;30214;52.246;14.408;2023-04-30T07:25:41;13.00;97.70
44509;DHT22;30214;52.246;14.408;2023-04-30T07:28:09;13.50;96.10
44509;DHT22;30214;52.246;14.408;2023-04-30T07:30:38;13.60;94.30
44509;DHT22;30214;52.246;14.408;2023-04-30T07:33:06;13.60;95.10
44509;DHT22;30214;52.246;14.408;2023-04-30T07:35:34;14.10;93.10
44509;DHT22;30214;52.246;14.408;2023-04-30T07:38:01;14.00;86.50
44509;DHT22;30214;52.246;14.408;2023-04-30T07:40:29;14.10;84.80
44509;DHT22;30214;52.246;14.408;2023-04-30T07:42:56;14.20;88.20
44509;DHT22;30214;52.246;14.408;2023-04-30T07:45:26;14.00;91.60
44509;DHT22;30214;52.246;14.408;2023-04-30T07:47:53;14.10;90.70
44509;DHT22;30214;52.246;14.408;2023-04-30T07:50:20;14.00;91.60
44509;DHT22;30214;52.246;14.408;2023-04-30T07:52:48;14.20;87.90
44509;DHT22;30214;52.246;14.408;2023-04-30T07:55:15;14.40;90.20
44509;DHT22;30214;52.246;14.408;2023-04-30T07:57:44;14.60;82.80
44509;DHT22;30214;52.246;14.408;2023-04-30T08:00:13;14.00;91.00
44509;DHT22;30214;52.246;14.408;2023-04-30T08:02:44;14.10;92.00
44509;DHT22;30214;52.246;14.408;2023-04-30T08:05:12;14.50;94.10
44509;DHT22;30214;52.246;14.408;2023-04-30T08:07:39;14.90;91.70
44509;DHT22;30214;52.246;14.408;2023-04-30T08:10:09;14.70;80.30
44509;DHT22;30214;52.246;14.408;2023-04-30T08:12:36;14.40;85.60
44509;DHT22;30214;52.246;14.408;2023-04-30T08:15:04;14.30;87.10
44509;DHT22;30214;52.246;14.408;2023-04-30T08:17:33;14.70;87.80
44509;DHT22;30214;52.246;14.408;2023-04-30T08:20:03;15.00;89.60
44509;DHT22;30214;52.246;14.408;2023-04-30T08:22:31;15.10;82.00
44509;DHT22;30214;52.246;14.408;2023-04-30T08:24:58;14.70;89.00
44509;DHT22;30214;52.246;14.408;2023-04-30T08:27:26;14.50;85.10
44509;DHT22;30214;52.246;14.408;2023-04-30T08:29:53;14.00;90.70
44509;DHT22;30214;52.246;14.408;2023-04-30T08:32:21;13.60;90.40
44509;DHT22;30214;52.246;14.408;2023-04-30T08:34:48;13.60;91.80
44509;DHT22;30214;52.246;14.408;2023-04-30T08:37:17;13.60;91.20
44509;DHT22;30214;52.246;14.408;2023-04-30T08:39:44;14.10;82.80
44509;DHT22;30214;52.246;14.408;2023-04-30T08:42:13;14.20;89.60
44509;DHT22;30214;52.246;14.408;2023-04-30T08:44:42;14.50;85.80
44509;DHT22;30214;52.246;14.408;2023-04-30T08:47:11;14.60;81.50
44509;DHT22;30214;52.246;14.408;2023-04-30T08:49:39;14.70;82.60
44509;DHT22;30214;52.246;14.408;2023-04-30T08:52:07;15.10;78.50
44509;DHT22;30214;52.246;14.408;2023-04-30T08:54:36;15.40;70.60
44509;DHT22;30214;52.246;14.408;2023-04-30T08:57:03;15.30;79.90
44509;DHT22;30214;52.246;14.408;2023-04-30T08:59:32;15.80;79.80
44509;DHT22;30214;52.246;14.408;2023-04-30T09:01:59;16.10;73.70
44509;DHT22;30214;52.246;14.408;2023-04-30T09:04:28;15.90;69.70
44509;DHT22;30214;52.246;14.408;2023-04-30T09:06:57;15.60;67.60
44509;DHT22;30214;52.246;14.408;2023-04-30T09:09:27;15.30;64.30
44509;DHT22;30214;52.246;14.408;2023-04-30T09:15:00;15.00;73.30
44509;DHT22;30214;52.246;14.408;2023-04-30T09:17:29;14.90;67.10
44509;DHT22;30214;52.246;14.408;2023-04-30T09:20:06;15.00;69.00
44509;DHT22;30214;52.246;14.408;2023-04-30T09:22:35;15.10;72.40
44509;DHT22;30214;52.246;14.408;2023-04-30T09:25:05;15.00;69.20
44509;DHT22;30214;52.246;14.408;2023-04-30T09:27:37;15.00;58.70
44509;DHT22;30214;52.246;14.408;2023-04-30T09:30:08;15.10;57.30
44509;DHT22;30214;52.246;14.408;2023-04-30T09:32:53;15.30;55.10
44509;DHT22;30214;52.246;14.408;2023-04-30T09:35:28;15.50;55.10
44509;DHT22;30214;52.246;14.408;2023-04-30T09:37:59;15.50;59.20
44509;DHT22;30214;52.246;14.408;2023-04-30T09:40:34;15.60;59.40
44509;DHT22;30214;52.246;14.408;2023-04-30T09:43:03;15.80;59.90
44509;DHT22;30214;52.246;14.408;2023-04-30T09:45:40;15.60;57.70
44509;DHT22;30214;52.246;14.408;2023-04-30T09:48:09;15.50;59.40
44509;DHT22;30214;52.246;14.408;2023-04-30T09:50:37;15.30;59.40
44509;DHT22;30214;52.246;14.408;2023-04-30T09:53:06;15.30;58.70
44509;DHT22;30214;52.246;14.408;2023-04-30T09:55:35;15.40;58.50
44509;DHT22;30214;52.246;14.408;2023-04-30T09:58:06;15.60;62.20
44509;DHT22;30214;52.246;14.408;2023-04-30T10:00:34;15.70;60.40
44509;DHT22;30214;52.246;14.408;2023-04-30T10:03:05;15.60;60.40
44509;DHT22;30214;52.246;14.408;2023-04-30T10:05:36;15.50;61.00
44509;DHT22;30214;52.246;14.408;2023-04-30T10:08:09;15.40;61.30
44509;DHT22;30214;52.246;14.408;2023-04-30T10:10:44;15.50;58.10
44509;DHT22;30214;52.246;14.408;2023-04-30T10:13:17;15.60;60.90
44509;DHT22;30214;52.246;14.408;2023-04-30T10:15:49;15.60;60.20
44509;DHT22;30214;52.246;14.408;2023-04-30T10:18:24;15.70;73.10
44509;DHT22;30214;52.246;14.408;2023-04-30T10:20:55;16.20;75.00
44509;DHT22;30214;52.246;14.408;2023-04-30T10:23:23;16.30;56.80
44509;DHT22;30214;52.246;14.408;2023-04-30T10:25:51;15.60;61.50
44509;DHT22;30214;52.246;14.408;2023-04-30T10:28:19;15.20;61.80
44509;DHT22;30214;52.246;14.408;2023-04-30T10:30:46;15.20;56.90
44509;DHT22;30214;52.246;14.408;2023-04-30T10:33:21;15.30;64.60
44509;DHT22;30214;52.246;14.408;2023-04-30T10:35:57;15.00;57.00
44509;DHT22;30214;52.246;14.408;2023-04-30T10:38:25;15.00;59.70
44509;DHT22;30214;52.246;14.408;2023-04-30T10:40:54;15.10;55.70
44509;DHT22;30214;52.246;14.408;2023-04-30T10:43:23;15.40;58.30
44509;DHT22;30214;52.246;14.408;2023-04-30T10:45:51;15.60;54.30
44509;DHT22;30214;52.246;14.408;2023-04-30T10:48:22;15.70;57.70
44509;DHT22;30214;52.246;14.408;2023-04-30T10:50:54;15.40;54.20
44509;DHT22;30214;52.246;14.408;2023-04-30T10:53:22;15.00;54.00
44509;DHT22;30214;52.246;14.408;2023-04-30T10:55:53;14.50;53.90
44509;DHT22;30214;52.246;14.408;2023-04-30T10:58:29;14.60;55.00
44509;DHT22;30214;52.246;14.408;2023-04-30T11:01:03;14.90;53.90
44509;DHT22;30214;52.246;14.408;2023-04-30T11:03:35;15.20;53.10
44509;DHT22;30214;52.246;14.408;2023-04-30T11:06:11;15.50;53.80
44509;DHT22;30214;52.246;14.408;2023-04-30T11:08:42;15.70;51.00
44509;DHT22;30214;52.246;14.408;2023-04-30T11:11:11;15.70;55.90
44509;DHT22;30214;52.246;14.408;2023-04-30T11:13:47;15.70;53.70
44509;DHT22;30214;52.246;14.408;2023-04-30T11:16:18;15.80;52.20
44509;DHT22;30214;52.246;14.408;2023-04-30T11:18:47;15.60;53.90
44509;DHT22;30214;52.246;14.408;2023-04-30T11:21:14;15.40;53.60
44509;DHT22;30214;52.246;14.408;2023-04-30T11:23:41;15.40;52.90
44509;DHT22;30214;52.246;14.408;2023-04-30T11:26:09;15.20;53.30
44509;DHT22;30214;52.246;14.408;2023-04-30T11:28:37;15.00;51.10
44509;DHT22;30214;52.246;14.408;2023-04-30T11:31:04;15.10;52.00
44509;DHT22;30214;52.246;14.408;2023-04-30T11:33:32;15.20;51.70
44509;DHT22;30214;52.246;14.408;2023-04-30T11:36:01;15.10;53.30
44509;DHT22;30214;52.246;14.408;2023-04-30T11:38:32;14.60;50.40
44509;DHT22;30214;52.246;14.408;2023-04-30T11:41:01;14.60;52.20
44509;DHT22;30214;52.246;14.408;2023-04-30T11:43:29;14.60;55.70
44509;DHT22;30214;52.246;14.408;2023-04-30T11:46:05;14.70;53.20
44509;DHT22;30214;52.246;14.408;2023-04-30T11:48:35;15.00;58.50
44509;DHT22;30214;52.246;14.408;2023-04-30T11:51:12;15.40;54.70
44509;DHT22;30214;52.246;14.408;2023-04-30T11:53:40;15.70;50.70
44509;DHT22;30214;52.246;14.408;2023-04-30T11:56:08;15.80;49.50
44509;DHT22;30214;52.246;14.408;2023-04-30T11:58:35;15.40;47.80
44509;DHT22;30214;52.246;14.408;2023-04-30T12:01:04;15.10;49.50
44509;DHT22;30214;52.246;14.408;2023-04-30T12:03:38;15.30;49.50
44509;DHT22;30214;52.246;14.408;2023-04-30T12:06:11;15.40;48.70
44509;DHT22;30214;52.246;14.408;2023-04-30T12:08:40;15.60;47.70
44509;DHT22;30214;52.246;14.408;2023-04-30T12:11:19;15.60;50.20
44509;DHT22;30214;52.246;14.408;2023-04-30T12:13:50;15.50;50.20
44509;DHT22;30214;52.246;14.408;2023-04-30T12:16:18;15.50;48.00
44509;DHT22;30214;52.246;14.408;2023-04-30T12:18:45;15.50;44.80
44509;DHT22;30214;52.246;14.408;2023-04-30T12:21:14;15.50;45.40
44509;DHT22;30214;52.246;14.408;2023-04-30T12:23:41;15.40;47.50
44509;DHT22;30214;52.246;14.408;2023-04-30T12:26:12;15.40;47.20
44509;DHT22;30214;52.246;14.408;2023-04-30T12:28:40;15.40;46.10
44509;DHT22;30214;52.246;14.408;2023-04-30T12:31:07;15.40;45.10
44509;DHT22;30214;52.246;14.408;2023-04-30T12:33:34;15.50;46.90
44509;DHT22;30214;52.246;14.408;2023-04-30T12:36:01;15.70;46.10
44509;DHT22;30214;52.246;14.408;2023-04-30T12:38:30;15.90;46.00
44509;DHT22;30214;52.246;14.408;2023-04-30T12:40:57;15.50;45.10
44509;DHT22;30214;52.246;14.408;2023-04-30T12:43:24;15.30;48.80
44509;DHT22;30214;52.246;14.408;2023-04-30T12:45:52;15.40;48.60
44509;DHT22;30214;52.246;14.408;2023-04-30T12:48:22;15.60;46.50
44509;DHT22;30214;52.246;14.408;2023-04-30T12:50:54;15.80;45.60
44509;DHT22;30214;52.246;14.408;2023-04-30T12:53:22;16.00;48.00
44509;DHT22;30214;52.246;14.408;2023-04-30T12:56:12;16.10;43.90
44509;DHT22;30214;52.246;14.408;2023-04-30T12:58:41;16.00;44.60
44509;DHT22;30214;52.246;14.408;2023-04-30T13:01:12;16.10;45.60
44509;DHT22;30214;52.246;14.408;2023-04-30T13:03:42;16.00;44.50
44509;DHT22;30214;52.246;14.408;2023-04-30T13:06:09;15.60;43.50
44509;DHT22;30214;52.246;14.408;2023-04-30T13:08:36;15.50;44.00
44509;DHT22;30214;52.246;14.408;2023-04-30T13:11:03;15.60;45.80
44509;DHT22;30214;52.246;14.408;2023-04-30T13:13:32;15.50;45.60
44509;DHT22;30214;52.246;14.408;2023-04-30T13:15:59;15.40;46.40
44509;DHT22;30214;52.246;14.408;2023-04-30T13:18:26;15.50;47.80
44509;DHT22;30214;52.246;14.408;2023-04-30T13:20:54;15.60;44.80
44509;DHT22;30214;52.246;14.408;2023-04-30T13:23:21;15.70;45.30
44509;DHT22;30214;52.246;14.408;2023-04-30T13:25:48;15.80;43.60
44509;DHT22;30214;52.246;14.408;2023-04-30T13:28:15;15.70;44.00
44509;DHT22;30214;52.246;14.408;2023-04-30T13:30:44;15.70;44.30
44509;DHT22;30214;52.246;14.408;2023-04-30T13:33:11;15.80;44.30
44509;DHT22;30214;52.246;14.408;2023-04-30T13:35:39;15.80;45.30
44509;DHT22;30214;52.246;14.408;2023-04-30T13:38:07;15.80;45.10
44509;DHT22;30214;52.246;14.408;2023-04-30T13:40:35;15.70;42.60
44509;DHT22;30214;52.246;14.408;2023-04-30T13:43:02;15.60;44.90
44509;DHT22;30214;52.246;14.408;2023-04-30T13:45:29;15.60;46.20
44509;DHT22;30214;52.246;14.408;2023-04-30T13:47:58;15.60;46.70
44509;DHT22;30214;52.246;14.408;2023-04-30T13:50:25;15.50;47.30
44509;DHT22;30214;52.246;14.408;2023-04-30T13:52:52;15.10;46.00
44509;DHT22;30214;52.246;14.408;2023-04-30T13:55:19;15.00;46.60
44509;DHT22;30214;52.246;14.408;2023-04-30T13:57:47;15.00;47.30
44509;DHT22;30214;52.246;14.408;2023-04-30T14:00:15;15.20;47.50
44509;DHT22;30214;52.246;14.408;2023-04-30T14:02:44;15.30;46.60
44509;DHT22;30214;52.246;14.408;2023-04-30T14:05:12;15.40;48.80
44509;DHT22;30214;52.246;14.408;2023-04-30T14:07:40;15.60;46.80
44509;DHT22;30214;52.246;14.408;2023-04-30T14:10:08;15.70;47.40
44509;DHT22;30214;52.246;14.408;2023-04-30T14:12:35;15.70;46.90
44509;DHT22;30214;52.246;14.408;2023-04-30T14:15:03;15.50;46.60
44509;DHT22;30214;52.246;14.408;2023-04-30T14:17:31;15.20;45.90
44509;DHT22;30214;52.246;14.408;2023-04-30T14:19:58;15.00;47.10
44509;DHT22;30214;52.246;14.408;2023-04-30T14:22:27;14.90;45.50
44509;DHT22;30214;52.246;14.408;2023-04-30T14:24:54;14.60;45.70
44509;DHT22;30214;52.246;14.408;2023-04-30T14:27:21;14.40;47.90
44509;DHT22;30214;52.246;14.408;2023-04-30T14:29:50;14.40;48.50
44509;DHT22;30214;52.246;14.408;2023-04-30T14:32:17;14.60;50.30
44509;DHT22;30214;52.246;14.408;2023-04-30T14:34:44;14.80;48.60
44509;DHT22;30214;52.246;14.408;2023-04-30T14:37:11;15.00;46.80
44509;DHT22;30214;52.246;14.408;2023-04-30T14:39:41;15.10;47.10
44509;DHT22;30214;52.246;14.408;2023-04-30T14:42:08;15.30;46.00
44509;DHT22;30214;52.246;14.408;2023-04-30T14:44:36;15.30;47.30
44509;DHT22;30214;52.246;14.408;2023-04-30T14:47:04;15.10;45.90
44509;DHT22;30214;52.246;14.408;2023-04-30T14:49:31;14.80;47.70
44509;DHT22;30214;52.246;14.408;2023-04-30T14:51:58;14.70;46.10
44509;DHT22;30214;52.246;14.408;2023-04-30T14:54:25;14.70;48.50
44509;DHT22;30214;52.246;14.408;2023-04-30T14:56:54;14.50;45.50
44509;DHT22;30214;52.246;14.408;2023-04-30T14:59:22;14.50;49.10
44509;DHT22;30214;52.246;14.408;2023-04-30T15:01:49;14.80;47.20
44509;DHT22;30214;52.246;14.408;2023-04-30T15:04:16;14.90;46.80
44509;DHT22;30214;52.246;14.408;2023-04-30T15:06:44;15.00;46.70
44509;DHT22;30214;52.246;14.408;2023-04-30T15:09:12;15.00;45.60
44509;DHT22;30214;52.246;14.408;2023-04-30T15:11:40;14.80;47.10
44509;DHT22;30214;52.246;14.408;2023-04-30T15:14:09;14.80;48.00
44509;DHT22;30214;52.246;14.408;2023-04-30T15:16:37;14.90;46.40
44509;DHT22;30214;52.246;14.408;2023-04-30T15:19:04;15.00;46.20
44509;DHT22;30214;52.246;14.408;2023-04-30T15:21:32;15.00;49.70
44509;DHT22;30214;52.246;14.408;2023-04-30T15:24:00;14.90;48.80
44509;DHT22;30214;52.246;14.408;2023-04-30T15:26:27;15.00;47.50
44509;DHT22;30214;52.246;14.408;2023-04-30T15:28:55;15.10;47.80
44509;DHT22;30214;52.246;14.408;2023-04-30T15:31:24;15.00;48.00
44509;DHT22;30214;52.246;14.408;2023-04-30T15:33:52;14.70;49.40